createdAt,value
2023-04-25T00:01:41.184Z,100177.34
2023-04-25T00:04:08.044Z,100175.44
2023-04-25T00:06:37.716Z,100182.69
2023-04-25T00:09:08.293Z,100182.75
2023-04-25T00:11:34.907Z,100179.94
2023-04-25T00:14:03.046Z,100187.22
2023-04-25T00:16:31.665Z,100175.34
2023-04-25T00:18:59.633Z,100183.75
2023-04-25T00:21:26.489Z,100180.47
2023-04-25T00:23:56.649Z,100189.13
2023-04-25T00:26:23.057Z,100193.44
2023-04-25T00:28:49.632Z,100195.69
2023-04-25T00:31:16.092Z,100197.22
2023-04-25T00:33:42.667Z,100199.06
2023-04-25T00:36:09.615Z,100202.13
2023-04-25T00:38:36.050Z,100193.06
2023-04-25T00:41:02.435Z,100191.72
2023-04-25T00:43:29.084Z,100188.75
2023-04-25T00:45:56.752Z,100187.59
2023-04-25T00:48:23.782Z,100183.56
2023-04-25T00:50:55.370Z,100185.91
2023-04-25T00:53:26.412Z,100190.25
2023-04-25T00:55:53.419Z,100182.09
2023-04-25T00:58:21.056Z,100184.81
2023-04-25T01:00:49.138Z,100186.78
2023-04-25T01:03:21.261Z,100182.72
2023-04-25T01:05:48.944Z,100183.59
2023-04-25T01:08:15.489Z,100188.09
2023-04-25T01:10:41.977Z,100186.09
2023-04-25T01:13:08.486Z,100186.69
2023-04-25T01:15:36.667Z,100195.72
2023-04-25T01:18:04.695Z,100191.72
2023-04-25T01:20:33.283Z,100199.00
2023-04-25T01:22:59.774Z,100192.09
2023-04-25T01:25:26.220Z,100200.78
2023-04-25T01:27:52.774Z,100194.94
2023-04-25T01:30:19.353Z,100193.59
2023-04-25T01:32:45.894Z,100200.00
2023-04-25T01:35:13.122Z,100196.16
2023-04-25T01:37:43.692Z,100186.66
2023-04-25T01:40:11.512Z,100203.56
2023-04-25T01:42:39.341Z,100194.53
2023-04-25T01:45:06.664Z,100197.53
2023-04-25T01:47:33.305Z,100201.22
2023-04-25T01:49:59.716Z,100203.44
2023-04-25T01:52:26.128Z,100202.00
2023-04-25T01:54:54.346Z,100207.84
2023-04-25T01:57:21.024Z,100209.88
2023-04-25T01:59:47.461Z,100215.94
2023-04-25T02:02:13.922Z,100215.19
2023-04-25T02:04:40.593Z,100227.03
2023-04-25T02:07:07.097Z,100222.63
2023-04-25T02:09:33.475Z,100223.91
2023-04-25T02:11:59.884Z,100219.03
2023-04-25T02:14:26.305Z,100217.50
2023-04-25T02:16:53.441Z,100212.88
2023-04-25T02:19:19.880Z,100228.69
2023-04-25T02:21:46.541Z,100229.81
2023-04-25T02:24:12.932Z,100234.72
2023-04-25T02:26:39.311Z,100231.63
2023-04-25T02:29:05.769Z,100229.94
2023-04-25T02:31:32.359Z,100231.44
2023-04-25T02:33:58.893Z,100240.03
2023-04-25T02:36:25.347Z,100246.88
2023-04-25T02:38:51.715Z,100244.31
2023-04-25T02:41:18.096Z,100248.47
2023-04-25T02:43:44.459Z,100245.84
2023-04-25T02:46:10.942Z,100250.84
2023-04-25T02:48:37.306Z,100252.44
2023-04-25T02:51:03.772Z,100250.31
2023-04-25T02:53:30.198Z,100253.19
2023-04-25T02:55:59.172Z,100253.66
2023-04-25T02:58:25.808Z,100247.59
2023-04-25T03:00:52.286Z,100262.16
2023-04-25T03:03:19.191Z,100255.72
2023-04-25T03:05:47.697Z,100257.47
2023-04-25T03:08:14.093Z,100258.56
2023-04-25T03:10:40.657Z,100255.84
2023-04-25T03:13:07.026Z,100265.06
2023-04-25T03:15:33.433Z,100265.94
2023-04-25T03:17:59.846Z,100255.06
2023-04-25T03:20:26.270Z,100266.59
2023-04-25T03:22:52.655Z,100265.38
2023-04-25T03:25:19.106Z,100264.84
2023-04-25T03:27:45.536Z,100270.03
2023-04-25T03:30:12.122Z,100269.75
2023-04-25T03:32:38.629Z,100263.03
2023-04-25T03:35:06.263Z,100265.81
2023-04-25T03:37:32.638Z,100267.19
2023-04-25T03:39:59.010Z,100272.59
2023-04-25T03:42:25.512Z,100266.00
2023-04-25T03:44:52.830Z,100266.28
2023-04-25T03:47:19.215Z,100277.47
2023-04-25T03:49:45.687Z,100280.16
2023-04-25T03:52:12.230Z,100281.34
2023-04-25T03:54:38.607Z,100284.69
2023-04-25T03:57:05.011Z,100288.69
2023-04-25T03:59:31.385Z,100289.84
2023-04-25T04:01:57.853Z,100286.00
2023-04-25T04:04:24.350Z,100294.47
2023-04-25T04:06:51.701Z,100297.28
2023-04-25T04:09:18.772Z,100289.31
2023-04-25T04:11:45.260Z,100298.31
2023-04-25T04:14:11.868Z,100305.50
2023-04-25T04:16:38.618Z,100297.97
2023-04-25T04:19:05.454Z,100294.47
2023-04-25T04:21:32.937Z,100302.69
2023-04-25T04:24:01.089Z,100302.81
2023-04-25T04:26:27.651Z,100299.03
2023-04-25T04:28:55.243Z,100309.09
2023-04-25T04:31:22.853Z,100307.69
2023-04-25T04:33:49.509Z,100310.38
2023-04-25T04:36:16.686Z,100313.63
2023-04-25T04:38:43.272Z,100317.34
2023-04-25T04:41:09.769Z,100321.44
2023-04-25T04:43:36.333Z,100320.81
2023-04-25T04:46:04.643Z,100311.56
2023-04-25T04:48:35.178Z,100319.78
2023-04-25T04:51:02.180Z,100319.41
2023-04-25T04:53:29.333Z,100330.72
2023-04-25T04:55:55.841Z,100333.69
2023-04-25T04:58:22.414Z,100331.72
2023-04-25T05:00:48.934Z,100333.53
2023-04-25T05:03:15.495Z,100340.47
2023-04-25T05:05:42.467Z,100350.53
2023-04-25T05:08:08.890Z,100352.81
2023-04-25T05:10:35.293Z,100354.75
2023-04-25T05:13:01.700Z,100357.06
2023-04-25T05:15:28.129Z,100359.75
2023-04-25T05:17:54.599Z,100360.69
2023-04-25T05:20:21.139Z,100364.53
2023-04-25T05:22:47.579Z,100363.63
2023-04-25T05:25:14.020Z,100357.16
2023-04-25T05:27:40.418Z,100369.53
2023-04-25T05:30:07.833Z,100377.34
2023-04-25T05:32:34.359Z,100376.50
2023-04-25T05:35:00.886Z,100376.75
2023-04-25T05:37:27.462Z,100381.91
2023-04-25T05:39:54.243Z,100384.97
2023-04-25T05:42:20.619Z,100383.94
2023-04-25T05:44:47.015Z,100385.06
2023-04-25T05:47:13.469Z,100385.34
2023-04-25T05:49:39.856Z,100392.94
2023-04-25T05:52:06.256Z,100393.84
2023-04-25T05:54:32.660Z,100397.25
2023-04-25T05:56:59.047Z,100400.53
2023-04-25T05:59:25.464Z,100398.56
2023-04-25T06:01:52.628Z,100407.97
2023-04-25T06:04:19.172Z,100407.38
2023-04-25T06:06:46.524Z,100408.78
2023-04-25T06:09:14.393Z,100421.41
2023-04-25T06:11:40.948Z,100413.13
2023-04-25T06:14:07.784Z,100417.38
2023-04-25T06:16:34.350Z,100420.91
2023-04-25T06:19:00.781Z,100418.50
2023-04-25T06:21:28.307Z,100429.47
2023-04-25T06:23:54.782Z,100429.19
2023-04-25T06:26:21.190Z,100424.53
2023-04-25T06:28:47.627Z,100426.22
2023-04-25T06:31:14.057Z,100428.09
2023-04-25T06:33:41.602Z,100437.66
2023-04-25T06:36:08.128Z,100436.94
2023-04-25T06:38:35.720Z,100438.41
2023-04-25T06:41:02.151Z,100439.38
2023-04-25T06:43:28.557Z,100427.50
2023-04-25T06:45:54.960Z,100431.47
2023-04-25T06:48:21.327Z,100432.34
2023-04-25T06:50:47.734Z,100438.25
2023-04-25T06:53:14.140Z,100435.09
2023-04-25T06:55:40.521Z,100432.00
2023-04-25T06:58:08.039Z,100443.84
2023-04-25T07:00:34.572Z,100442.53
2023-04-25T07:03:01.128Z,100450.56
2023-04-25T07:05:27.865Z,100442.03
2023-04-25T07:07:54.292Z,100433.53
2023-04-25T07:10:22.250Z,100442.66
2023-04-25T07:12:48.844Z,100442.09
2023-04-25T07:15:15.485Z,100442.66
2023-04-25T07:17:41.915Z,100436.94
2023-04-25T07:20:10.079Z,100438.56
2023-04-25T07:22:36.455Z,100440.06
2023-04-25T07:25:03.011Z,100447.84
2023-04-25T07:27:29.503Z,100456.13
2023-04-25T07:29:55.946Z,100452.72
2023-04-25T07:32:22.401Z,100455.28
2023-04-25T07:34:48.833Z,100456.09
2023-04-25T07:37:15.395Z,100458.88
2023-04-25T07:39:42.852Z,100461.78
2023-04-25T07:42:09.269Z,100472.69
2023-04-25T07:44:39.586Z,100468.34
2023-04-25T07:47:07.997Z,100480.34
2023-04-25T07:49:37.942Z,100478.66
2023-04-25T07:52:06.394Z,100478.19
2023-04-25T07:54:33.334Z,100473.69
2023-04-25T07:56:59.812Z,100480.44
2023-04-25T07:59:28.005Z,100482.03
2023-04-25T08:01:56.069Z,100491.41
2023-04-25T08:04:22.622Z,100491.53
2023-04-25T08:06:49.305Z,100489.44
2023-04-25T08:09:16.519Z,100491.56
2023-04-25T08:11:42.995Z,100499.56
2023-04-25T08:14:09.374Z,100508.50
2023-04-25T08:16:35.996Z,100508.63
2023-04-25T08:19:03.806Z,100507.97
2023-04-25T08:21:30.351Z,100513.75
2023-04-25T08:23:57.473Z,100530.00
2023-04-25T08:26:23.850Z,100511.31
2023-04-25T08:28:50.570Z,100516.78
2023-04-25T08:31:17.541Z,100518.38
2023-04-25T08:33:44.532Z,100533.31
2023-04-25T08:36:11.113Z,100529.78
2023-04-25T08:38:37.694Z,100534.28
2023-04-25T08:41:04.488Z,100531.16
2023-04-25T08:43:34.197Z,100531.94
2023-04-25T08:46:01.421Z,100541.38
2023-04-25T08:48:29.295Z,100536.16
2023-04-25T08:50:57.131Z,100538.63
2023-04-25T08:53:28.429Z,100552.75
2023-04-25T08:55:56.581Z,100547.34
2023-04-25T08:58:23.779Z,100560.91
2023-04-25T09:00:50.910Z,100557.25
2023-04-25T09:03:18.448Z,100565.22
2023-04-25T09:05:45.002Z,100562.56
2023-04-25T09:08:11.507Z,100572.00
2023-04-25T09:10:38.238Z,100568.81
2023-04-25T09:13:09.810Z,100571.47
2023-04-25T09:15:52.969Z,100579.84
2023-04-25T09:18:31.092Z,100584.03
2023-04-25T09:21:13.045Z,100585.88
2023-04-25T09:23:48.681Z,100598.59
2023-04-25T09:26:17.869Z,100605.38
2023-04-25T09:28:44.345Z,100611.22
2023-04-25T09:31:12.107Z,100603.22
2023-04-25T09:33:38.798Z,100607.72
2023-04-25T09:36:09.831Z,100610.97
2023-04-25T09:38:46.978Z,100603.63
2023-04-25T09:41:13.701Z,100609.13
2023-04-25T09:43:40.607Z,100605.97
2023-04-25T09:46:12.017Z,100606.34
2023-04-25T09:48:38.657Z,100621.75
2023-04-25T09:51:13.457Z,100615.75
2023-04-25T09:53:44.472Z,100618.00
2023-04-25T09:56:12.173Z,100610.28
2023-04-25T09:58:40.870Z,100609.16
2023-04-25T10:01:09.806Z,100607.63
2023-04-25T10:03:38.164Z,100600.91
2023-04-25T10:06:08.647Z,100612.22
2023-04-25T10:08:39.046Z,100613.56
2023-04-25T10:11:07.841Z,100611.38
2023-04-25T10:13:35.385Z,100608.78
2023-04-25T10:16:03.509Z,100610.19
2023-04-25T10:18:30.805Z,100623.56
2023-04-25T10:20:58.906Z,100625.03
2023-04-25T10:23:25.985Z,100628.28
2023-04-25T10:25:53.020Z,100633.28
2023-04-25T10:28:20.675Z,100637.13
2023-04-25T10:31:13.492Z,100631.47
2023-04-25T10:33:42.994Z,100633.09
2023-04-25T10:36:14.026Z,100630.91
2023-04-25T10:38:41.184Z,100640.75
2023-04-25T10:41:09.945Z,100639.41
2023-04-25T10:43:39.262Z,100641.06
2023-04-25T10:46:24.589Z,100639.97
2023-04-25T10:48:56.583Z,100650.31
2023-04-25T10:51:51.010Z,100653.63
2023-04-25T10:54:21.053Z,100657.22
2023-04-25T10:56:50.016Z,100661.81
2023-04-25T10:59:18.263Z,100679.59
2023-04-25T11:01:49.995Z,100675.25
2023-04-25T11:04:21.329Z,100681.19
2023-04-25T11:06:55.855Z,100677.94
2023-04-25T11:09:27.740Z,100678.28
2023-04-25T11:11:59.134Z,100680.03
2023-04-25T11:14:26.092Z,100683.44
2023-04-25T11:17:00.729Z,100677.00
2023-04-25T11:19:28.319Z,100677.22
2023-04-25T11:21:58.826Z,100680.50
2023-04-25T11:24:28.837Z,100685.72
2023-04-25T11:26:55.449Z,100674.19
2023-04-25T11:29:27.846Z,100669.06
2023-04-25T11:31:58.722Z,100666.03
2023-04-25T11:34:26.213Z,100670.00
2023-04-25T11:36:53.683Z,100677.13
2023-04-25T11:39:20.623Z,100688.03
2023-04-25T11:41:47.613Z,100664.19
2023-04-25T11:44:17.138Z,100663.78
2023-04-25T11:46:44.126Z,100665.66
2023-04-25T11:49:10.633Z,100657.47
2023-04-25T11:51:41.514Z,100659.00
2023-04-25T11:54:08.150Z,100657.31
2023-04-25T11:56:34.586Z,100650.56
2023-04-25T11:59:02.611Z,100648.03
2023-04-25T12:01:35.555Z,100655.41
2023-04-25T12:04:22.432Z,100652.53
2023-04-25T12:06:51.595Z,100657.94
2023-04-25T12:09:22.892Z,100650.84
2023-04-25T12:11:53.484Z,100652.63
2023-04-25T12:14:30.252Z,100655.56
2023-04-25T12:16:58.872Z,100642.31
2023-04-25T12:19:25.915Z,100646.72
2023-04-25T12:24:26.722Z,100664.13
2023-04-25T12:27:04.992Z,100668.81
2023-04-25T12:29:42.054Z,100674.00
2023-04-25T12:32:15.485Z,100674.44
2023-04-25T12:34:41.857Z,100673.31
2023-04-25T12:37:08.402Z,100676.56
2023-04-25T12:39:34.854Z,100687.91
2023-04-25T12:42:01.890Z,100687.59
2023-04-25T12:44:28.272Z,100687.13
2023-04-25T12:46:55.523Z,100697.84
2023-04-25T12:49:22.033Z,100704.66
2023-04-25T12:51:48.435Z,100708.88
2023-04-25T12:54:15.367Z,100711.25
2023-04-25T12:56:42.125Z,100714.94
2023-04-25T12:59:08.622Z,100711.50
2023-04-25T13:01:36.539Z,100706.16
2023-04-25T13:04:03.369Z,100716.09
2023-04-25T13:06:31.318Z,100715.94
2023-04-25T13:08:57.724Z,100718.41
2023-04-25T13:11:24.125Z,100704.34
2023-04-25T13:13:50.812Z,100706.56
2023-04-25T13:16:17.539Z,100692.28
2023-04-25T13:18:43.979Z,100687.81
2023-04-25T13:21:11.839Z,100686.66
2023-04-25T13:23:38.216Z,100682.13
2023-04-25T13:26:04.757Z,100672.19
2023-04-25T13:28:31.358Z,100676.22
2023-04-25T13:30:57.799Z,100671.63
2023-04-25T13:33:24.196Z,100684.13
2023-04-25T13:35:58.065Z,100678.22
2023-04-25T13:38:26.209Z,100701.78
2023-04-25T13:40:53.136Z,100729.44
2023-04-25T13:43:23.575Z,100738.78
2023-04-25T13:45:50.857Z,100745.84
2023-04-25T13:48:17.370Z,100740.75
2023-04-25T13:50:43.787Z,100745.31
2023-04-25T13:53:10.325Z,100744.31
2023-04-25T13:55:37.832Z,100746.38
2023-04-25T13:58:08.464Z,100744.38
2023-04-25T14:00:37.823Z,100744.38
2023-04-25T14:03:07.970Z,100741.13
2023-04-25T14:05:38.797Z,100730.72
2023-04-25T14:08:09.673Z,100733.16
2023-04-25T14:10:36.538Z,100734.53
2023-04-25T14:13:04.094Z,100723.28
2023-04-25T14:15:32.456Z,100714.06
2023-04-25T14:17:59.120Z,100702.31
2023-04-25T14:20:25.584Z,100694.69
2023-04-25T14:22:52.974Z,100680.41
2023-04-25T14:25:19.417Z,100684.13
2023-04-25T14:27:50.447Z,100699.94
2023-04-25T14:30:18.636Z,100711.97
2023-04-25T14:32:45.909Z,100698.63
2023-04-25T14:35:12.650Z,100682.47
2023-04-25T14:37:39.127Z,100677.28
2023-04-25T14:40:06.131Z,100676.59
2023-04-25T14:42:33.864Z,100677.19
2023-04-25T14:45:00.245Z,100680.78
2023-04-25T14:47:26.710Z,100695.19
2023-04-25T14:49:55.044Z,100707.84
2023-04-25T14:52:21.961Z,100735.78
2023-04-25T14:54:48.387Z,100756.94
2023-04-25T14:57:15.261Z,100770.97
2023-04-25T14:59:42.051Z,100776.03
2023-04-25T15:02:08.484Z,100773.09
2023-04-25T15:04:35.048Z,100766.94
2023-04-25T15:07:01.972Z,100756.47
2023-04-25T15:09:29.704Z,100766.59
2023-04-25T15:11:56.344Z,100755.78
2023-04-25T15:14:22.753Z,100761.88
2023-04-25T15:16:49.278Z,100757.44
2023-04-25T15:19:16.205Z,100749.81
2023-04-25T15:21:42.615Z,100748.63
2023-04-25T15:24:09.028Z,100739.09
2023-04-25T15:26:35.390Z,100747.38
2023-04-25T15:29:02.061Z,100740.25
2023-04-25T15:31:28.564Z,100722.25
2023-04-25T15:33:54.962Z,100721.94
2023-04-25T15:36:22.363Z,100724.53
2023-04-25T15:38:48.742Z,100730.13
2023-04-25T15:41:15.115Z,100750.22
2023-04-25T15:43:41.508Z,100758.16
2023-04-25T15:46:07.985Z,100765.47
2023-04-25T15:48:34.450Z,100756.69
2023-04-25T15:51:00.968Z,100760.31
2023-04-25T15:53:27.444Z,100782.03
2023-04-25T15:55:53.834Z,100771.09
2023-04-25T15:58:20.227Z,100773.50
2023-04-25T16:00:48.941Z,100772.66
2023-04-25T16:03:15.593Z,100776.28
2023-04-25T16:05:42.490Z,100776.34
2023-04-25T16:08:08.981Z,100780.38
2023-04-25T16:10:35.476Z,100781.38
2023-04-25T16:13:01.905Z,100779.00
2023-04-25T16:15:28.357Z,100772.31
2023-04-25T16:17:54.797Z,100776.09
2023-04-25T16:20:21.271Z,100774.56
2023-04-25T16:22:47.846Z,100777.19
2023-04-25T16:25:14.238Z,100770.44
2023-04-25T16:27:41.141Z,100770.56
2023-04-25T16:30:08.668Z,100776.56
2023-04-25T16:32:35.290Z,100773.75
2023-04-25T16:35:01.977Z,100775.59
2023-04-25T16:37:28.377Z,100773.00
2023-04-25T16:39:54.768Z,100777.94
2023-04-25T16:42:21.150Z,100778.72
2023-04-25T16:44:47.605Z,100787.16
2023-04-25T16:47:17.972Z,100771.94
2023-04-25T16:49:46.031Z,100770.31
2023-04-25T16:52:12.567Z,100764.19
2023-04-25T16:54:39.078Z,100775.25
2023-04-25T16:57:06.886Z,100769.53
2023-04-25T16:59:33.274Z,100785.50
2023-04-25T17:01:59.728Z,100789.09
2023-04-25T17:04:26.841Z,100795.34
2023-04-25T17:06:53.460Z,100793.66
2023-04-25T17:09:19.887Z,100800.72
2023-04-25T17:11:46.548Z,100798.16
2023-04-25T17:14:12.980Z,100798.69
2023-04-25T17:16:39.533Z,100793.28
2023-04-25T17:19:06.384Z,100798.56
2023-04-25T17:21:33.001Z,100800.28
2023-04-25T17:23:59.413Z,100794.78
2023-04-25T17:26:26.462Z,100802.78
2023-04-25T17:28:53.850Z,100807.16
2023-04-25T17:31:21.257Z,100816.13
2023-04-25T17:33:48.310Z,100807.19
2023-04-25T17:36:14.974Z,100808.56
2023-04-25T17:38:41.356Z,100822.44
2023-04-25T17:41:10.297Z,100820.03
2023-04-25T17:43:36.698Z,100824.84
2023-04-25T17:46:03.104Z,100820.47
2023-04-25T17:48:31.541Z,100815.25
2023-04-25T17:50:58.562Z,100820.09
2023-04-25T17:53:24.993Z,100819.31
2023-04-25T17:55:51.379Z,100824.25
2023-04-25T17:58:17.796Z,100828.84
2023-04-25T18:00:44.357Z,100834.50
2023-04-25T18:03:11.236Z,100839.91
2023-04-25T18:05:37.763Z,100838.41
2023-04-25T18:08:05.880Z,100848.88
2023-04-25T18:10:33.869Z,100848.28
2023-04-25T18:13:00.467Z,100856.09
2023-04-25T18:15:26.986Z,100864.38
2023-04-25T18:17:53.467Z,100858.78
2023-04-25T18:20:20.558Z,100871.41
2023-04-25T18:22:47.039Z,100866.78
2023-04-25T18:25:13.844Z,100867.19
2023-04-25T18:27:41.093Z,100870.81
2023-04-25T18:30:09.424Z,100875.97
2023-04-25T18:32:35.864Z,100877.03
2023-04-25T18:35:02.649Z,100880.72
2023-04-25T18:37:29.045Z,100881.28
2023-04-25T18:39:55.507Z,100892.13
2023-04-25T18:42:22.365Z,100910.38
2023-04-25T18:44:48.728Z,100896.13
2023-04-25T18:47:15.350Z,100910.91
2023-04-25T18:49:41.936Z,100916.53
2023-04-25T18:52:10.495Z,100915.69
2023-04-25T18:54:37.244Z,100918.28
2023-04-25T18:57:04.134Z,100921.13
2023-04-25T18:59:30.486Z,100924.72
2023-04-25T19:01:56.946Z,100927.66
2023-04-25T19:04:23.446Z,100929.09
2023-04-25T19:06:51.036Z,100927.28
2023-04-25T19:09:18.224Z,100935.41
2023-04-25T19:11:44.644Z,100934.44
2023-04-25T19:14:11.681Z,100935.00
2023-04-25T19:16:41.547Z,100938.84
2023-04-25T19:19:09.110Z,100948.03
2023-04-25T19:21:35.956Z,100951.97
2023-04-25T19:24:04.626Z,100951.97
2023-04-25T19:26:31.363Z,100957.69
2023-04-25T19:29:08.782Z,100962.03
2023-04-25T19:31:36.390Z,100957.13
2023-04-25T19:34:06.898Z,100964.94
2023-04-25T19:36:33.825Z,100967.88
2023-04-25T19:39:04.270Z,100970.09
2023-04-25T19:41:32.056Z,100970.59
2023-04-25T19:44:00.770Z,100980.91
2023-04-25T19:46:27.194Z,100981.13
2023-04-25T19:48:53.652Z,100972.69
2023-04-25T19:51:20.884Z,100985.91
2023-04-25T19:53:47.251Z,100987.16
2023-04-25T19:56:13.879Z,100988.97
2023-04-25T19:58:40.222Z,100997.78
2023-04-25T20:01:06.679Z,100987.84
2023-04-25T20:03:33.283Z,100995.84
2023-04-25T20:05:59.743Z,100995.25
2023-04-25T20:08:26.248Z,100990.09
2023-04-25T20:10:52.671Z,100988.25
2023-04-25T20:13:19.037Z,100991.19
2023-04-25T20:15:45.907Z,100995.66
2023-04-25T20:18:12.391Z,100993.31
2023-04-25T20:20:38.825Z,101001.91
2023-04-25T20:23:05.216Z,101006.50
2023-04-25T20:25:31.575Z,100998.94
2023-04-25T20:27:57.974Z,101008.97
2023-04-25T20:30:24.398Z,101007.47
2023-04-25T20:32:50.830Z,101004.16
2023-04-25T20:35:17.549Z,101002.16
2023-04-25T20:37:44.024Z,101005.59
2023-04-25T20:40:10.603Z,101004.09
2023-04-25T20:42:38.039Z,101003.13
2023-04-25T20:45:07.684Z,101007.94
2023-04-25T20:47:34.721Z,101008.97
2023-04-25T20:50:03.851Z,101013.13
2023-04-25T20:52:31.862Z,101009.50
2023-04-25T20:54:58.485Z,101011.66
2023-04-25T20:57:24.995Z,101007.13
2023-04-25T20:59:51.497Z,101014.94
2023-04-25T21:02:17.927Z,101006.69
2023-04-25T21:04:44.440Z,101010.69
2023-04-25T21:07:15.217Z,101015.81
2023-04-25T21:09:45.566Z,101024.41
2023-04-25T21:12:12.133Z,101015.59
2023-04-25T21:14:38.584Z,101012.94
2023-04-25T21:17:05.400Z,101014.91
2023-04-25T21:19:31.912Z,101021.53
2023-04-25T21:21:58.395Z,101018.22
2023-04-25T21:24:26.856Z,101020.22
2023-04-25T21:26:53.352Z,101025.94
2023-04-25T21:29:19.729Z,101023.72
2023-04-25T21:31:46.678Z,101022.47
2023-04-25T21:34:13.147Z,101027.19
2023-04-25T21:36:41.129Z,101032.31
2023-04-25T21:39:07.531Z,101030.50
2023-04-25T21:41:33.989Z,101030.34
2023-04-25T21:44:00.448Z,101037.16
2023-04-25T21:46:26.882Z,101037.78
2023-04-25T21:48:53.993Z,101037.16
2023-04-25T21:51:20.773Z,101034.59
2023-04-25T21:53:47.197Z,101030.66
2023-04-25T21:56:13.640Z,101027.78
2023-04-25T21:58:40.050Z,101037.16
2023-04-25T22:01:06.457Z,101035.19
2023-04-25T22:03:34.008Z,101035.03
2023-04-25T22:06:01.131Z,101037.75
2023-04-25T22:08:27.547Z,101051.22
2023-04-25T22:10:55.108Z,101047.13
2023-04-25T22:13:22.565Z,101045.03
2023-04-25T22:15:48.993Z,101045.31
2023-04-25T22:18:16.252Z,101045.47
2023-04-25T22:20:44.160Z,101043.78
2023-04-25T22:23:11.843Z,101049.69
2023-04-25T22:25:38.260Z,101054.41
2023-04-25T22:28:05.158Z,101062.66
2023-04-25T22:30:32.456Z,101061.88
2023-04-25T22:32:58.887Z,101056.19
2023-04-25T22:35:25.415Z,101066.75
2023-04-25T22:37:51.851Z,101063.78
2023-04-25T22:40:18.507Z,101070.94
2023-04-25T22:42:44.918Z,101077.84
2023-04-25T22:45:12.123Z,101077.34
2023-04-25T22:47:39.354Z,101075.78
2023-04-25T22:50:08.449Z,101084.22
2023-04-25T22:52:35.015Z,101079.03
2023-04-25T22:55:02.826Z,101080.56
2023-04-25T22:57:29.528Z,101089.22
2023-04-25T22:59:56.253Z,101091.44
2023-04-25T23:02:22.906Z,101084.97
2023-04-25T23:04:50.365Z,101090.28
2023-04-25T23:07:17.454Z,101090.34
2023-04-25T23:09:45.031Z,101093.97
2023-04-25T23:12:11.488Z,101095.28
2023-04-25T23:14:38.444Z,101097.13
2023-04-25T23:17:05.206Z,101089.25
2023-04-25T23:19:31.680Z,101083.06
2023-04-25T23:21:58.947Z,101088.22
2023-04-25T23:24:25.834Z,101095.31
2023-04-25T23:26:52.273Z,101098.19
2023-04-25T23:29:18.728Z,101105.38
2023-04-25T23:31:45.276Z,101106.44
2023-04-25T23:34:11.629Z,101105.97
2023-04-25T23:36:38.011Z,101106.44
2023-04-25T23:39:05.315Z,101113.09
2023-04-25T23:41:32.036Z,101113.34
2023-04-25T23:43:58.832Z,101107.16
2023-04-25T23:46:25.873Z,101112.59
2023-04-25T23:48:52.593Z,101115.25
2023-04-25T23:51:19.546Z,101105.03
2023-04-25T23:53:45.936Z,101106.28
2023-04-25T23:56:12.366Z,101109.31
2023-04-25T23:58:38.762Z,101109.78
